createdAt,value
2022-09-10T00:01:30.842Z,59.08
2022-09-10T00:03:59.912Z,58.89
2022-09-10T00:06:38.828Z,58.75
2022-09-10T00:09:08.278Z,59.04
2022-09-10T00:11:39.594Z,59.03
2022-09-10T00:14:09.257Z,59.07
2022-09-10T00:16:37.934Z,59.08
2022-09-10T00:19:06.916Z,58.98
2022-09-10T00:21:36.756Z,59.15
2022-09-10T00:24:05.908Z,59.11
2022-09-10T00:26:35.687Z,59.16
2022-09-10T00:29:04.204Z,59.11
2022-09-10T00:31:33.795Z,58.83
2022-09-10T00:34:03.312Z,59.17
2022-09-10T00:36:33.417Z,59.17
2022-09-10T00:39:05.221Z,59.34
2022-09-10T00:41:34.493Z,60.17
2022-09-10T00:44:04.644Z,60.47
2022-09-10T00:46:35.295Z,60.71
2022-09-10T00:49:04.718Z,60.54
2022-09-10T00:51:35.327Z,60.28
2022-09-10T00:54:05.849Z,60.06
2022-09-10T00:56:35.538Z,59.92
2022-09-10T00:59:04.540Z,60.13
2022-09-10T01:01:34.069Z,60.26
2022-09-10T01:04:18.595Z,60.08
2022-09-10T01:09:31.002Z,60.01
2022-09-10T01:12:06.374Z,59.92
2022-09-10T01:14:44.414Z,60.05
2022-09-10T01:17:20.431Z,60.05
2022-09-10T01:19:59.934Z,60.16
2022-09-10T01:22:33.970Z,60.14
2022-09-10T01:25:08.638Z,60.97
2022-09-10T01:27:41.592Z,61.48
2022-09-10T01:30:12.069Z,60.94
2022-09-10T01:32:58.271Z,61.37
2022-09-10T01:35:30.592Z,61.50
2022-09-10T01:38:03.543Z,61.52
2022-09-10T01:40:32.714Z,61.70
2022-09-10T01:43:03.603Z,61.29
2022-09-10T01:45:34.551Z,61.44
2022-09-10T01:48:15.473Z,61.62
2022-09-10T01:50:47.891Z,61.52
2022-09-10T01:53:28.314Z,61.86
2022-09-10T01:56:00.566Z,62.14
2022-09-10T01:58:33.015Z,62.13
2022-09-10T02:01:09.515Z,62.07
2022-09-10T02:03:39.877Z,61.82
2022-09-10T02:06:13.350Z,62.48
2022-09-10T02:08:45.663Z,62.02
2022-09-10T02:11:14.646Z,62.43
2022-09-10T02:13:44.816Z,62.66
2022-09-10T02:16:16.162Z,62.86
2022-09-10T02:18:45.188Z,62.70
2022-09-10T02:21:16.101Z,62.56
2022-09-10T02:23:46.039Z,62.86
2022-09-10T02:26:15.243Z,63.62
2022-09-10T02:28:45.307Z,63.31
2022-09-10T02:31:14.429Z,62.85
2022-09-10T02:33:43.815Z,63.16
2022-09-10T02:36:12.884Z,63.02
2022-09-10T02:38:41.652Z,63.02
2022-09-10T02:41:10.096Z,62.93
2022-09-10T02:43:38.876Z,62.84
2022-09-10T02:55:00.242Z,63.03
2022-09-10T02:57:29.064Z,63.04
2022-09-10T02:59:58.000Z,63.08
2022-09-10T03:02:26.958Z,63.15
2022-09-10T03:04:55.136Z,63.08
2022-09-10T03:07:23.355Z,62.83
2022-09-10T03:09:52.074Z,62.85
2022-09-10T03:12:22.944Z,62.82
2022-09-10T03:14:51.759Z,62.46
2022-09-10T03:17:20.483Z,62.60
2022-09-10T03:19:49.003Z,62.40
2022-09-10T03:22:17.342Z,62.41
2022-09-10T03:24:47.244Z,62.55
2022-09-10T03:27:16.635Z,62.27
2022-09-10T03:32:45.060Z,62.02
2022-09-10T03:35:13.834Z,61.65
2022-09-10T03:37:42.448Z,61.37
2022-09-10T03:40:11.633Z,61.20
2022-09-10T03:42:40.642Z,60.97
2022-09-10T03:45:09.741Z,60.96
2022-09-10T03:47:39.601Z,61.04
2022-09-10T03:50:09.953Z,60.96
2022-09-10T03:52:38.340Z,60.68
2022-09-10T03:55:08.359Z,60.98
2022-09-10T03:57:39.085Z,61.01
2022-09-10T04:00:08.961Z,60.90
2022-09-10T04:02:37.283Z,60.71
2022-09-10T04:05:06.991Z,60.27
2022-09-10T04:07:37.169Z,60.06
2022-09-10T04:10:06.782Z,59.76
2022-09-10T04:12:36.609Z,59.67
2022-09-10T04:15:05.294Z,59.35
2022-09-10T04:17:34.212Z,58.99
2022-09-10T04:20:03.569Z,58.98
2022-09-10T04:22:32.325Z,58.67
2022-09-10T04:25:02.344Z,58.73
2022-09-10T04:27:32.063Z,58.69
2022-09-10T04:30:01.203Z,58.72
2022-09-10T04:32:29.954Z,58.67
2022-09-10T04:34:59.213Z,58.74
2022-09-10T04:37:28.604Z,58.50
2022-09-10T04:39:57.269Z,58.06
2022-09-10T04:42:28.601Z,57.66
2022-09-10T04:44:58.183Z,57.43
2022-09-10T04:47:27.851Z,57.36
2022-09-10T04:52:54.895Z,56.59
2022-09-10T04:55:23.655Z,56.60
2022-09-10T04:57:54.355Z,56.27
2022-09-10T05:00:23.312Z,56.20
2022-09-10T05:02:52.257Z,55.88
2022-09-10T05:05:21.132Z,55.63
2022-09-10T05:07:49.449Z,55.33
2022-09-10T05:10:18.323Z,55.08
2022-09-10T05:12:46.958Z,54.76
2022-09-10T05:15:17.893Z,54.50
2022-09-10T05:17:47.922Z,54.23
2022-09-10T05:20:17.023Z,52.94
2022-09-10T05:22:45.411Z,53.39
2022-09-10T05:25:13.740Z,53.08
2022-09-10T05:27:42.941Z,52.94
2022-09-10T05:30:13.139Z,52.95
2022-09-10T05:32:43.299Z,52.73
2022-09-10T05:35:12.602Z,51.88
2022-09-10T05:37:41.884Z,51.76
2022-09-10T05:40:11.841Z,51.92
2022-09-10T05:42:41.827Z,51.63
2022-09-10T05:45:12.464Z,51.27
2022-09-10T05:47:41.521Z,51.84
2022-09-10T05:50:12.772Z,51.24
2022-09-10T05:52:41.609Z,51.32
2022-09-10T05:55:13.211Z,50.76
2022-09-10T06:03:08.263Z,50.47
2022-09-10T06:05:38.330Z,50.26
2022-09-10T06:08:08.987Z,50.19
2022-09-10T06:10:37.522Z,49.64
2022-09-10T06:13:07.316Z,49.34
2022-09-10T06:15:36.391Z,48.98
2022-09-10T06:18:05.097Z,48.71
2022-09-10T06:20:33.487Z,48.68
2022-09-10T06:23:03.629Z,48.50
2022-09-10T06:25:32.746Z,48.18
2022-09-10T06:28:02.478Z,48.27
2022-09-10T06:30:31.045Z,47.93
2022-09-10T06:32:59.631Z,46.89
2022-09-10T06:35:30.413Z,45.90
2022-09-10T06:38:00.542Z,46.38
2022-09-10T06:40:31.111Z,45.93
2022-09-10T06:43:02.722Z,46.07
2022-09-10T06:45:31.642Z,46.12
2022-09-10T06:50:54.088Z,46.05
2022-09-10T06:53:23.915Z,44.62
2022-09-10T06:55:54.830Z,44.57
2022-09-10T06:58:25.208Z,44.70
2022-09-10T07:00:53.798Z,44.63
2022-09-10T07:03:22.945Z,44.86
2022-09-10T07:05:52.550Z,45.27
2022-09-10T07:08:21.219Z,44.11
2022-09-10T07:10:49.582Z,44.74
2022-09-10T07:13:19.410Z,44.75
2022-09-10T07:15:49.153Z,44.53
2022-09-10T07:18:17.359Z,44.20
2022-09-10T07:20:46.342Z,44.20
2022-09-10T07:23:15.537Z,44.36
2022-09-10T07:25:44.011Z,44.47
2022-09-10T07:28:14.656Z,43.91
2022-09-10T07:30:45.438Z,43.98
2022-09-10T07:33:13.810Z,44.01
2022-09-10T07:35:42.263Z,43.61
2022-09-10T07:38:15.669Z,42.83
2022-09-10T07:40:44.679Z,43.05
2022-09-10T07:43:13.084Z,42.69
2022-09-10T07:45:41.916Z,42.76
2022-09-10T07:48:13.334Z,42.04
2022-09-10T07:50:41.659Z,42.58
2022-09-10T07:53:11.928Z,42.56
2022-09-10T07:55:40.372Z,41.56
2022-09-10T07:58:11.688Z,41.08
2022-09-10T08:00:40.469Z,41.58
2022-09-10T08:03:08.779Z,41.71
2022-09-10T08:05:39.734Z,41.61
2022-09-10T08:08:08.034Z,41.71
2022-09-10T08:10:36.530Z,41.71
2022-09-10T08:13:05.002Z,40.24
2022-09-10T08:15:33.749Z,40.51
2022-09-10T08:18:02.427Z,40.53
2022-09-10T08:20:31.001Z,40.74
2022-09-10T08:23:00.910Z,40.41
2022-09-10T08:25:29.468Z,40.66
2022-09-10T08:27:58.330Z,40.53
2022-09-10T08:33:41.685Z,40.23
2022-09-10T08:36:12.178Z,40.29
2022-09-10T08:38:42.597Z,40.03
2022-09-10T08:41:13.445Z,39.71
2022-09-10T08:43:44.606Z,38.55
2022-09-10T08:46:17.521Z,38.88
2022-09-10T08:49:16.400Z,38.69
2022-09-10T08:51:46.935Z,38.50
2022-09-10T08:54:18.885Z,39.00
2022-09-10T08:56:49.210Z,38.94
2022-09-10T08:59:21.748Z,39.09
2022-09-10T09:01:53.114Z,39.25
2022-09-10T09:04:28.895Z,39.08
2022-09-10T09:07:00.594Z,38.99
2022-09-10T09:09:30.588Z,38.62
2022-09-10T09:12:03.198Z,38.65
2022-09-10T09:14:38.358Z,38.31
2022-09-10T09:17:19.903Z,38.10
2022-09-10T09:19:54.682Z,38.13
2022-09-10T09:22:27.720Z,37.76
2022-09-10T09:24:58.753Z,37.20
2022-09-10T09:27:28.569Z,37.46
2022-09-10T09:30:00.170Z,37.68
2022-09-10T09:32:31.511Z,37.78
2022-09-10T09:35:05.970Z,37.70
2022-09-10T09:37:35.298Z,37.74
2022-09-10T09:40:09.686Z,37.32
2022-09-10T09:42:45.819Z,36.95
2022-09-10T09:45:20.981Z,36.69
2022-09-10T09:47:50.288Z,36.36
2022-09-10T09:50:19.768Z,36.32
2022-09-10T09:52:48.478Z,36.42
2022-09-10T09:55:24.852Z,36.56
2022-09-10T09:58:14.524Z,36.57
2022-09-10T10:00:44.479Z,35.76
2022-09-10T10:03:16.805Z,35.31
2022-09-10T10:05:46.076Z,35.28
2022-09-10T10:08:31.171Z,35.79
2022-09-10T10:11:01.090Z,34.88
2022-09-10T10:13:37.501Z,34.20
2022-09-10T10:16:16.602Z,33.63
2022-09-10T10:18:45.394Z,33.85
2022-09-10T10:21:16.227Z,31.89
2022-09-10T10:23:44.869Z,29.05
2022-09-10T10:29:20.930Z,29.65
2022-09-10T10:31:49.786Z,28.38
2022-09-10T10:34:30.879Z,27.86
2022-09-10T10:37:07.856Z,27.00
2022-09-10T10:39:44.649Z,27.05
2022-09-10T10:42:18.810Z,24.44
2022-09-10T10:45:00.229Z,25.59
2022-09-10T10:47:38.333Z,24.85
2022-09-10T10:50:14.067Z,25.71
2022-09-10T10:52:49.176Z,26.08
2022-09-10T10:55:23.350Z,25.08
2022-09-10T10:58:01.885Z,24.55
2022-09-10T11:00:33.884Z,21.64
2022-09-10T11:03:05.197Z,23.38
2022-09-10T11:08:27.274Z,23.70
2022-09-10T11:11:00.710Z,21.85
2022-09-10T11:13:33.242Z,20.09
2022-09-10T11:16:05.860Z,19.73
2022-09-10T11:18:36.895Z,19.37
2022-09-10T11:21:09.556Z,18.75
2022-09-10T11:23:41.128Z,18.63
2022-09-10T11:26:13.317Z,17.97
2022-09-10T11:28:45.174Z,17.78
2022-09-10T11:31:17.435Z,18.05
2022-09-10T11:33:49.687Z,18.06
2022-09-10T11:36:25.428Z,16.00
2022-09-10T11:38:59.670Z,16.89
2022-09-10T11:41:29.870Z,17.77
2022-09-10T11:44:10.878Z,16.42
2022-09-10T11:46:43.231Z,17.13
2022-09-10T11:49:16.742Z,16.62
2022-09-10T11:51:46.494Z,16.18
2022-09-10T11:54:16.297Z,16.86
2022-09-10T11:56:53.064Z,16.32
2022-09-10T11:59:32.724Z,17.54
2022-09-10T12:02:16.574Z,17.25
2022-09-10T12:04:47.865Z,16.58
2022-09-10T12:07:22.062Z,15.91
2022-09-10T12:09:53.047Z,15.72
2022-09-10T12:12:25.483Z,15.38
2022-09-10T12:14:54.127Z,15.23
2022-09-10T12:17:27.520Z,15.27
2022-09-10T12:20:03.731Z,15.82
2022-09-10T12:22:35.874Z,15.62
2022-09-10T12:25:06.527Z,16.09
2022-09-10T12:27:45.589Z,14.76
2022-09-10T12:30:35.017Z,14.74
2022-09-10T12:33:26.655Z,15.21
2022-09-10T12:35:55.176Z,15.79
2022-09-10T12:38:42.051Z,15.56
2022-09-10T12:41:11.387Z,15.10
2022-09-10T12:43:54.678Z,15.47
2022-09-10T12:46:25.859Z,15.57
2022-09-10T12:49:11.067Z,15.46
2022-09-10T12:51:46.424Z,15.32
2022-09-10T12:54:28.190Z,15.58
2022-09-10T12:57:12.941Z,15.17
2022-09-10T13:00:05.638Z,15.38
2022-09-10T13:02:35.434Z,15.09
2022-09-10T13:05:07.630Z,15.01
2022-09-10T13:07:41.970Z,14.34
2022-09-10T13:10:21.947Z,14.61
2022-09-10T13:12:53.452Z,14.28
2022-09-10T13:15:24.145Z,14.33
2022-09-10T13:18:11.713Z,14.22
2022-09-10T13:20:41.493Z,13.94
2022-09-10T13:23:21.552Z,13.62
2022-09-10T13:25:50.083Z,14.05
2022-09-10T13:28:38.467Z,13.96
2022-09-10T13:31:12.092Z,13.52
2022-09-10T13:33:49.886Z,12.24
2022-09-10T13:36:26.240Z,12.41
2022-09-10T13:39:06.899Z,12.62
2022-09-10T13:41:53.149Z,12.71
2022-09-10T13:44:41.695Z,12.85
2022-09-10T13:47:12.624Z,13.06
2022-09-10T13:49:47.325Z,13.44
2022-09-10T13:52:19.316Z,13.47
2022-09-10T13:54:49.821Z,13.48
2022-09-10T13:57:20.672Z,13.05
2022-09-10T13:59:50.857Z,11.58
2022-09-10T14:02:21.501Z,12.30
2022-09-10T14:04:52.047Z,12.26
2022-09-10T14:07:23.000Z,12.43
2022-09-10T14:09:52.511Z,12.64
2022-09-10T14:12:29.022Z,12.80
2022-09-10T14:14:59.517Z,12.79
2022-09-10T14:17:30.456Z,13.08
2022-09-10T14:20:01.551Z,13.01
2022-09-10T14:22:33.842Z,13.55
2022-09-10T14:25:04.409Z,13.26
2022-09-10T14:27:33.849Z,13.13
2022-09-10T14:30:17.841Z,13.08
2022-09-10T14:32:46.862Z,13.13
2022-09-10T14:35:34.550Z,13.50
2022-09-10T14:38:09.359Z,13.40
2022-09-10T14:40:38.562Z,13.58
2022-09-10T14:43:15.592Z,13.71
2022-09-10T14:45:46.410Z,13.81
2022-09-10T14:48:38.039Z,13.74
2022-09-10T14:51:17.910Z,13.94
2022-09-10T14:53:51.787Z,13.88
2022-09-10T14:56:25.074Z,14.36
2022-09-10T14:58:59.164Z,14.55
2022-09-10T15:01:28.410Z,14.52
2022-09-10T15:03:57.119Z,14.63
2022-09-10T15:06:26.989Z,15.25
2022-09-10T15:08:57.586Z,15.13
2022-09-10T15:11:27.885Z,15.40
2022-09-10T15:13:59.483Z,15.65
2022-09-10T15:16:28.416Z,15.50
2022-09-10T15:18:58.318Z,15.83
2022-09-10T15:24:14.401Z,17.26
2022-09-10T15:26:44.203Z,17.77
2022-09-10T15:29:13.331Z,18.32
2022-09-10T15:31:42.224Z,18.59
2022-09-10T15:34:11.668Z,19.08
2022-09-10T15:36:41.266Z,19.00
2022-09-10T15:39:12.639Z,19.56
2022-09-10T15:41:48.454Z,20.59
2022-09-10T15:44:18.580Z,21.46
2022-09-10T15:46:47.508Z,23.17
2022-09-10T15:49:15.931Z,23.99
2022-09-10T15:51:44.277Z,24.57
2022-09-10T15:54:12.801Z,25.30
2022-09-10T15:56:44.823Z,25.54
2022-09-10T15:59:16.799Z,26.16
2022-09-10T16:01:45.064Z,26.09
2022-09-10T16:04:15.084Z,26.64
2022-09-10T16:06:44.269Z,26.78
2022-09-10T16:09:16.633Z,27.45
2022-09-10T16:11:45.599Z,27.77
2022-09-10T16:14:17.045Z,28.07
2022-09-10T16:16:46.743Z,28.36
2022-09-10T16:19:16.032Z,28.50
2022-09-10T16:21:46.379Z,28.72
2022-09-10T16:24:14.630Z,29.07
2022-09-10T16:27:02.826Z,29.60
2022-09-10T16:29:34.156Z,29.43
2022-09-10T16:32:02.881Z,30.42
2022-09-10T16:34:33.868Z,30.36
2022-09-10T16:37:03.553Z,30.60
2022-09-10T16:39:32.077Z,31.39
2022-09-10T16:42:00.616Z,31.15
2022-09-10T16:44:30.935Z,31.12
2022-09-10T16:47:01.032Z,31.52
2022-09-10T16:49:29.970Z,32.05
2022-09-10T16:51:59.288Z,31.88
2022-09-10T16:54:30.450Z,31.97
2022-09-10T16:56:59.442Z,32.52
2022-09-10T16:59:28.518Z,32.47
2022-09-10T17:02:00.739Z,32.76
2022-09-10T17:04:32.807Z,32.80
2022-09-10T17:07:01.692Z,33.29
2022-09-10T17:09:35.490Z,33.17
2022-09-10T17:12:04.221Z,33.69
2022-09-10T17:14:34.214Z,33.63
2022-09-10T17:17:02.687Z,34.47
2022-09-10T17:19:35.212Z,35.43
2022-09-10T17:22:06.887Z,35.14
2022-09-10T17:24:36.869Z,35.28
2022-09-10T17:27:05.698Z,35.83
2022-09-10T17:29:34.495Z,35.60
2022-09-10T17:32:02.891Z,36.47
2022-09-10T17:34:34.169Z,35.77
2022-09-10T17:37:02.708Z,36.09
2022-09-10T17:39:31.687Z,35.94
2022-09-10T17:42:00.452Z,36.28
2022-09-10T17:44:28.952Z,36.52
2022-09-10T17:46:57.503Z,36.16
2022-09-10T17:49:26.310Z,36.75
2022-09-10T17:51:57.008Z,37.07
2022-09-10T17:54:25.582Z,36.81
2022-09-10T17:56:54.041Z,37.02
2022-09-10T17:59:25.009Z,37.04
2022-09-10T18:01:53.929Z,37.46
2022-09-10T18:04:22.973Z,37.38
2022-09-10T18:06:52.703Z,37.98
2022-09-10T18:09:23.774Z,38.39
2022-09-10T18:11:52.411Z,38.41
2022-09-10T18:14:22.059Z,38.33
2022-09-10T18:16:51.694Z,38.20
2022-09-10T18:19:19.909Z,38.47
2022-09-10T18:21:48.593Z,38.82
2022-09-10T18:24:19.283Z,38.38
2022-09-10T18:26:50.030Z,38.79
2022-09-10T18:29:19.433Z,39.16
2022-09-10T18:31:48.598Z,39.43
2022-09-10T18:34:22.620Z,40.05
2022-09-10T18:36:53.647Z,39.58
2022-09-10T18:39:22.259Z,40.06
2022-09-10T18:41:52.524Z,39.89
2022-09-10T18:44:22.475Z,39.80
2022-09-10T18:46:52.885Z,40.02
2022-09-10T18:49:22.291Z,40.54
2022-09-10T18:51:52.336Z,40.84
2022-09-10T18:54:21.346Z,40.59
2022-09-10T18:56:50.565Z,40.71
2022-09-10T18:59:21.391Z,40.42
2022-09-10T19:01:50.452Z,40.96
2022-09-10T19:04:20.518Z,41.20
2022-09-10T19:06:49.939Z,41.28
2022-09-10T19:09:19.080Z,41.27
2022-09-10T19:11:52.709Z,41.42
2022-09-10T19:14:27.326Z,41.31
2022-09-10T19:16:56.593Z,41.40
2022-09-10T19:19:26.084Z,41.53
2022-09-10T19:21:55.796Z,41.17
2022-09-10T19:24:44.113Z,41.63
2022-09-10T19:27:14.342Z,41.64
2022-09-10T19:29:44.646Z,41.84
2022-09-10T19:32:14.826Z,42.04
2022-09-10T19:34:43.151Z,42.01
2022-09-10T19:37:11.518Z,42.05
2022-09-10T19:39:39.809Z,41.76
2022-09-10T19:42:08.227Z,42.03
2022-09-10T19:44:36.847Z,41.95
2022-09-10T19:47:06.999Z,42.35
2022-09-10T19:49:35.547Z,42.62
2022-09-10T19:52:04.448Z,42.33
2022-09-10T19:54:32.655Z,42.90
2022-09-10T19:57:00.935Z,42.51
2022-09-10T19:59:29.336Z,42.86
2022-09-10T20:01:57.797Z,42.83
2022-09-10T20:04:28.013Z,42.82
2022-09-10T20:06:56.796Z,42.85
2022-09-10T20:09:25.072Z,42.85
2022-09-10T20:11:53.908Z,42.77
2022-09-10T20:14:22.265Z,42.93
2022-09-10T20:16:51.329Z,43.17
2022-09-10T20:19:22.133Z,43.55
2022-09-10T20:21:52.286Z,43.81
2022-09-10T20:24:21.026Z,44.27
2022-09-10T20:26:49.501Z,43.64
2022-09-10T20:29:19.548Z,43.64
2022-09-10T20:31:50.004Z,44.34
2022-09-10T20:34:19.755Z,44.27
2022-09-10T20:36:48.878Z,44.21
2022-09-10T20:39:19.943Z,44.49
2022-09-10T20:41:48.607Z,44.55
2022-09-10T20:44:17.691Z,44.24
2022-09-10T20:46:48.708Z,44.80
2022-09-10T20:49:17.691Z,44.68
2022-09-10T20:51:47.790Z,45.27
2022-09-10T20:54:16.991Z,45.24
2022-09-10T20:56:47.582Z,44.79
2022-09-10T20:59:19.382Z,45.00
2022-09-10T21:01:50.892Z,44.77
2022-09-10T21:04:21.699Z,44.96
2022-09-10T21:06:50.051Z,45.39
2022-09-10T21:09:18.540Z,44.94
2022-09-10T21:11:53.015Z,45.08
2022-09-10T21:17:32.977Z,45.71
2022-09-10T21:20:03.318Z,45.28
2022-09-10T21:22:32.112Z,45.06
2022-09-10T21:25:00.789Z,45.43
2022-09-10T21:27:32.920Z,45.65
2022-09-10T21:30:01.861Z,45.38
2022-09-10T21:32:31.898Z,45.46
2022-09-10T21:35:00.708Z,45.51
2022-09-10T21:40:18.097Z,45.46
2022-09-10T21:42:48.165Z,45.59
2022-09-10T21:45:25.651Z,45.63
2022-09-10T21:47:54.632Z,45.46
2022-09-10T21:50:23.180Z,46.10
2022-09-10T21:59:00.165Z,46.19
2022-09-10T22:01:29.950Z,46.45
2022-09-10T22:03:59.732Z,46.29
2022-09-10T22:06:29.119Z,46.47
2022-09-10T22:08:59.395Z,46.51
2022-09-10T22:11:29.608Z,46.47
2022-09-10T22:14:03.070Z,46.59
2022-09-10T22:16:32.542Z,47.10
2022-09-10T22:19:01.711Z,46.75
2022-09-10T22:21:30.473Z,46.40
2022-09-10T22:23:58.819Z,47.18
2022-09-10T22:26:28.290Z,46.74
2022-09-10T22:28:57.597Z,46.43
2022-09-10T22:31:28.745Z,46.47
2022-09-10T22:33:57.610Z,46.67
2022-09-10T22:36:29.133Z,46.44
2022-09-10T22:38:59.454Z,46.99
2022-09-10T22:41:28.455Z,46.73
2022-09-10T22:43:57.498Z,47.14
2022-09-10T22:46:28.521Z,46.97
2022-09-10T22:48:57.126Z,47.06
2022-09-10T22:51:26.510Z,47.21
2022-09-10T22:53:55.283Z,47.33
2022-09-10T22:56:24.897Z,48.24
2022-09-10T22:58:53.455Z,48.26
2022-09-10T23:01:22.946Z,47.82
2022-09-10T23:03:53.341Z,48.23
2022-09-10T23:06:22.965Z,48.17
2022-09-10T23:08:53.142Z,48.63
2022-09-10T23:11:22.515Z,48.36
2022-09-10T23:13:52.650Z,48.92
2022-09-10T23:16:22.005Z,48.72
2022-09-10T23:18:52.226Z,48.74
2022-09-10T23:21:23.375Z,48.91
2022-09-10T23:23:52.497Z,48.73
2022-09-10T23:26:20.750Z,49.00
2022-09-10T23:28:49.386Z,49.59
2022-09-10T23:31:18.603Z,49.51
2022-09-10T23:33:48.907Z,49.30
2022-09-10T23:36:17.292Z,49.27
2022-09-10T23:38:47.516Z,49.60
2022-09-10T23:41:16.183Z,49.25
2022-09-10T23:43:44.873Z,49.05
2022-09-10T23:46:13.384Z,49.50
2022-09-10T23:48:43.132Z,49.65
2022-09-10T23:51:13.910Z,49.32
2022-09-10T23:53:42.995Z,49.32
2022-09-10T23:56:12.731Z,49.14
2022-09-10T23:58:41.071Z,49.34
